Summerfield, Kansas
Current Conditions -  °F | °C
As of 4:35 AM on Monday 22 Dec 2014 (Local Time) from KMYZ Reporting Station
Light Rain Light Rain  
Wind Chill: 38°   Ceiling: 500
Heat Index: 43°   Visibility: 7mi
Dew Point: 41°   Wind: 8mph
Humidity: 93%   Direction: 180°S
Pressure: 29.55"   Gusts: NA
Location:  40°N, 96.35°W
Report Text: KMYZ 221035Z AUTO 18007KT 7SM -RA OVC005 06/05 A2955 RMK AO2
Loading
Personal Weather Stations






























Interactive Weather Map New forecast layout! Learn more

10-Day Weather Forecast

Advertisements
Track Severe Weather on mobile